Timeline UpdatesTrip UpdatesNews PostsPvt PostsTravel TipsAdmin PostsConv PostsFollowed PostsChat RequestsBlog PostsPNR Posts

Disclaimer
Search
 
 
Tue Sep 2, 2014 14:54:47 ISTHomeTrainsΣChainsAtlasPNRForumGalleryNewsFAQTripsMembersLoginFeedback
No Recent News for this Train
Other Trains in the News **new
Latest...
⇐ Return Journey: Train# 53043

53044/Rajgir - Howrah Passenger (UnReserved)

OLD Time-Table. New TT will soon be available.
Nov 04 2013 (6:59AM)
Change Departure Station:
Change Arrival Station:
Post a Train Travel TipPost a Train Travel Tip **new
Post a Comment/Question/Picture/VideoPost a Comment/Question/Picture/Video
Pantry/Catering
✕ NO Pantry Car
✕ NO Catering
RSA - Rake Sharing
Rake/Coach Composition
Loco
HWH WDM 3A/3D
News    PNR    Forum    Time-Table    Availability    Fare Chart    Map    Arr/Dep History    Trips    Gallery    ΣChains    X/O    Timeline    
Travel Time: 23h 30m    72 halts    Distance: 657 km    Avg Speed: 27 km/hr
Type: Passenger
Zone: ER/Eastern
Departs @ 12:40
Platform# ???
SMTWTFS
Rajgir/RGD 
Arrives @ 12:10 +1 night
Platform# 1
SMTWTFS
Kolkata Howrah Junction/HWH 

72 halts. 157 intermediate Stations between Rajgir and Kolkata Howrah Junction

Show ALL intermediate Stations  Show Old Time-Table

#CodeStation NameX/OArrivesAvgDepartsAvgHaltPFDay#KmSpeedElevZoneAddress
1RGD»Rajgir (3)»  -12:40---10.03871mECRRajgir, Bihar
2NLDNalanda (2)  12:58-12:59-1m--111.34063mECRNational Highway 82, Bihar
3BEHSBihar Sharif (2)  13:18-13:23-5m--123.83656mECR06112-222306, Bihar
4WENAWena (2)  13:46-13:47-1m--137.8947mECRWena, Bihar
5HRTHarnaut (3)X  14:21-14:28-7m--142.95349mECRHarnaut, Bihar
6BKPBakhtiyarpur Junction (5)XO  14:40-15:10-30m--153.66851mECRPatna, Bihar
7ATLAthmal Gola (2)  15:18-15:19-1m--162.75052mECRPatna, Bihar
8BARHBarh (3)X  15:30-15:32-2m--171.87849mECRBarh, Bihar
9PHKPunarakh (2)  15:40-15:41-1m--182.22951mECRPunarakh, Bihar
10MORMor (2)XO  15:58-16:27-29m--190.54846mECRMor, Bihar
11MKAMokama Junction (4)  16:36-16:40-4m--197.75648mECRPatna, Bihar
12HTZHathidah Junction (2)X  16:49-16:51-2m11106.14650mECRMusahari, Bihar
13RDUMRampur Dumra (3)OO  16:56-16:57-1m--1109.93746mECRNational Highway 80, Bihar
14BRYABarhiya (3)  17:06-17:08-2m--1115.52247mECRBarahiya, Bihar
15MKBMankatha  17:34-17:40-6m--1124.93047mECRNational Highway 80, Bihar
16LKRLuckeesarai Junction (2)X  17:51-17:53-2m--1130.51252mECRLakhisarai, Bihar
17KIULKiul Junction (5)X  18:00-18:25-25m--1131.93653mECRDist. Lakhisarai, Bihar
18DNREDhanauri  18:35-18:37-2m--1137.94948mERNational Highway 80, Bihar
19URENUrenX  18:43-18:45-2m--1142.85845mERUren, Bihar
20KJHKajra (2)  18:50-18:51-1m--1147.66250mERLakhisarai District, Bihar
21AHAAbhaipur (2)  18:58-18:59-1m--1154.94852mERAbhaipur, Bihar
22MSDNMasudan (2)  19:04-19:05-1m--1158.96045mERMasudan, Bihar
23DRHDharhara (2)  19:11-19:12-1m--1164.91855mERDharhara, Bihar
24DRTPDasharathpur (2)  19:30-19:31-1m--1170.33248mERDharhara, Bihar
25JMPJamalpur Junction (4)  19:43-19:58-15m11176.74259mERJamalpur 06344-243101, Bihar
26RPURRatanpur (2)  20:07-20:08-1m--1183.05846mERRatanpur Railway Station, Bihar
27BUPBariarpur (3)  20:13-20:14-1m--1187.81142mERMunger, Bihar
28KPRDKalyanpur Road (3)  20:21-20:22-1m--1189.11040mERMunger, Bihar
29GNNAGangani (2)  20:29-20:30-1m--1190.313338mERGangania, Bihar
30SGGSultanGanj (3)  20:37-20:40-3m--1205.85042mERSultanganj, Bihar
31AKNAkbarnagar (3)  20:52-20:53-1m--1215.84439mERTilakpur, Bihar
32NATNathnagar (2)  21:01-21:02-1m--1226.04048mERBhagalpur, Bihar
33BGPBhagalpur Junction (6)X  21:09-21:19-10m--1230.75049mERBhagalpur, Bihar
34SBOSabaur (3)  21:28-21:29-1m--1238.24442mERSabour, Bihar
35LMMLailakh Mamalkha (2)  21:38-21:39-1m--1244.95836mERLailakh Mamlkha, Bihar
36GGAGhoga (2)  21:45-21:47-2m--1250.76942mERGhoga, Bihar
37EKCEkchari (1)  21:52-21:53-1m11256.45237mERNational Highway 80, Bihar
38CLGKahalgaon (2)  21:58-22:00-2m11260.84944mERBhagalpur, Bihar
39SVRPShivanarayanpur (2)X  22:14-22:38-24m--1272.24847mERShivanarayanpur, Bihar
40PPTPirpainti (2)  22:49-22:51-2m--1281.15653mERBhagalpur, Bihar
41MZCMirza Cheuki (3)X  23:00-23:06-6m31289.62638mERBihar, Bihar
42SBGSahibganj Junction (3)X  23:41-23:59-18m11304.75238mERSahibganj, Jharkhand
43SLJSakrigali Junction (3)X  00:08-00:09-1m--2312.55345mERSakrigali, Jharkhand
44MJPMaharajpur (2)  00:16-00:17-1m--2318.68534mERMoharajpur, Jharkhand
45TLJTaljhari  00:27-00:28-1m--2332.85838mERTaljhari, Jharkhand
46KXEKalian Chak  00:33-00:34-1m--2337.65845mERKalian Chak, Jharkhand
47TPHTinpahar Junction (3)  00:39-00:42-3m22342.45945mERBamangawan, Jharkhand
48BKLEBakudi (3)  00:51-00:52-1m--2351.22665mERBakudi, Jharkhand
49BHWBarharwa Junction (3)X  01:10-01:20-10m22359.14436mERBarharwa, Jharkhand
50GMANGumani (3)X  01:30-01:31-1m--2366.56731mERGumani, Jharkhand
51KLPKotalpukur (3)  01:37-01:39-2m--2373.23840mERKotalpukur, Jharkhand
52TBBTilbhita (3)XO  01:51-01:55-4m--2380.71731mERTilbhita, Jharkhand
53PKRPakur (2)X  02:10-02:11-1m22384.94237mERDist:- Pakur, Jharkhand
54RJGRajgram (3)  02:26-02:27-1m22395.57032mERDist - Birbhum, West Bengal
55MRRMurarai (3)  02:37-02:38-1m--2407.27036mERDist - Birbhum, West Bengal
56NHTNalhati Junction (4)X  02:52-02:54-2m22423.42948mERDist - Birbhum, West Bengal
57RPHRampurhat (3)  03:23-03:43-20m--2437.56741mERDIST - Birbhum, West Bengal
58SNTSainthia Junction (4)  04:08-04:13-5m42465.54758mERDist - Birbhum, West Bengal
59AMPAhmadpur Junction (3)O  04:30-04:35-5m--2478.72846mERDist - Birbhum, West Bengal
60PNEPrantik (3)  05:08-05:09-1m--2494.05148mERDist - Birbhum, West Bengal
61BHPBolpur Shantiniketan (3)  05:14-05:19-5m--2498.26059mERDist - Birbhum, West Bengal
62BDHBhedia (2)  05:27-05:28-1m--2506.25541mERDist - Bardhaman, West Bengal
63GKHGuskara (2)X  05:40-05:41-1m12517.16041mERDist - Bardhaman, West Bengal
64BPSBanpas (3)  05:51-05:52-1m--2527.21146mERDist - Bardhaman, West Bengal
65KANKhana Junction (5)X  06:45-06:46-1m--2536.95642mERDist - Bardhaman, West Bengal
66BWNBarddhaman Junction (8)XO  07:00-07:20-20m--2550.05034mERDist - Barddhaman, West Bengal
67MYMMemari (4)  07:50-08:00-10m--2575.02225mERMemari, West Bengal
68MUGMagra (3)  09:38-09:43-5m--2610.5715mERMagra, West Bengal
69BDCBandel Junction (7)  10:44-10:50-6m--2617.23214mERdist - HOOGHLY, West Bengal
70CNSChuchura (3)  10:57-10:58-1m--2621.03615mERDist - HOOGHLY - 712102, West Bengal
71CGRChandan Nagar (3)  11:03-11:05-2m--2624.05316mERDist -HOOGHLY - 712136, West Bengal
72SHESeoraphuli Junction (6)  11:17-11:19-2m--2634.63013mERBaidyabati, West Bengal
73SRPSerampore (4)X  11:24-11:28-4m--2637.22811mERdist - hooghly, West Bengal
74HWH•Kolkata Howrah Junction (23)•  12:10--12656.7-10mERHowrah 711101, West Bengal
Scroll to Top
Scroll to Bottom